Time,TemperatureF,DewpointF,PressureIn,WindDirection,WindDirectionDegrees,WindSpeedMPH,WindSpeedGustMPH,Humidity,HourlyPrecipIn,Conditions,Clouds,dailyrainin,SoftwareType,DateUTC
2013-07-19 00:02:00,79.0,69.0,-100.00,South,185,7.0,11.0,71,-99.99,,,-99.99,,2013-07-19 05:02:00,
2013-07-19 01:33:00,78.0,69.0,-100.00,SSW,195,7.0,11.0,75,-99.99,,,-99.99,,2013-07-19 06:33:00,
2013-07-19 01:43:00,78.0,69.0,-100.00,SSW,195,7.0,11.0,75,-99.99,,,-99.99,,2013-07-19 06:43:00,
2013-07-19 01:53:00,78.0,69.0,-100.00,SSW,195,7.0,11.0,75,-99.99,,,-99.99,,2013-07-19 06:53:00,
2013-07-19 02:01:00,78.0,69.0,-100.00,SSW,195,7.0,11.0,75,-99.99,,,-99.99,,2013-07-19 07:01:00,
2013-07-19 02:33:00,78.0,69.0,-100.00,South,190,7.0,11.0,74,-99.99,,,-99.99,,2013-07-19 07:33:00,
2013-07-19 02:43:00,78.0,69.0,-100.00,South,190,7.0,11.0,74,-99.99,,,-99.99,,2013-07-19 07:43:00,
2013-07-19 02:53:00,78.0,69.0,-100.00,South,190,7.0,11.0,74,-99.99,,,-99.99,,2013-07-19 07:53:00,
2013-07-19 03:01:00,78.0,69.0,-100.00,South,190,7.0,11.0,74,-99.99,,,-99.99,,2013-07-19 08:01:00,
2013-07-19 03:33:00,78.0,68.0,-100.00,SSW,200,9.0,18.0,71,-99.99,,,-99.99,,2013-07-19 08:33:00,
2013-07-19 03:43:00,78.0,68.0,-100.00,SSW,200,9.0,18.0,71,-99.99,,,-99.99,,2013-07-19 08:43:00,
2013-07-19 03:52:00,78.0,68.0,-100.00,SSW,200,9.0,18.0,71,-99.99,,,-99.99,,2013-07-19 08:52:00,
2013-07-19 04:02:00,78.0,68.0,-100.00,SSW,200,9.0,18.0,71,-99.99,,,-99.99,,2013-07-19 09:02:00,
2013-07-19 05:33:00,77.0,68.0,-100.00,SSW,200,7.0,14.0,73,-99.99,,,-99.99,,2013-07-19 10:33:00,
2013-07-19 05:43:00,77.0,68.0,-100.00,SSW,200,7.0,14.0,73,-99.99,,,-99.99,,2013-07-19 10:43:00,
2013-07-19 05:52:00,77.0,68.0,-100.00,SSW,200,7.0,14.0,73,-99.99,,,-99.99,,2013-07-19 10:52:00,
2013-07-19 06:02:00,77.0,68.0,-100.00,SSW,200,7.0,14.0,73,-99.99,,,-99.99,,2013-07-19 11:02:00,
2013-07-19 06:33:00,77.0,68.0,-100.00,SSW,205,7.0,12.0,75,-99.99,,,-99.99,,2013-07-19 11:33:00,
2013-07-19 06:43:00,77.0,68.0,-100.00,SSW,205,7.0,12.0,75,-99.99,,,-99.99,,2013-07-19 11:43:00,
2013-07-19 06:52:00,77.0,68.0,-100.00,SSW,205,7.0,12.0,75,-99.99,,,-99.99,,2013-07-19 11:52:00,
2013-07-19 07:01:00,77.0,68.0,-100.00,SSW,205,7.0,12.0,75,-99.99,,,-99.99,,2013-07-19 12:01:00,
2013-07-19 07:33:00,74.0,71.0,-100.00,SSW,210,7.0,17.0,90,-99.99,,,-99.99,,2013-07-19 12:33:00,
2013-07-19 07:44:00,74.0,71.0,-100.00,SSW,210,7.0,17.0,90,-99.99,,,-99.99,,2013-07-19 12:44:00,
2013-07-19 07:52:00,74.0,71.0,-100.00,SSW,210,7.0,17.0,90,-99.99,,,-99.99,,2013-07-19 12:52:00,
2013-07-19 08:02:00,74.0,71.0,-100.00,SSW,210,7.0,17.0,90,-99.99,,,-99.99,,2013-07-19 13:02:00,
2013-07-19 08:32:00,74.0,71.0,-100.00,SW,235,6.0,10.0,90,-99.99,,,-99.99,,2013-07-19 13:32:00,
2013-07-19 08:43:00,74.0,71.0,-100.00,SW,235,6.0,10.0,90,-99.99,,,-99.99,,2013-07-19 13:43:00,
2013-07-19 08:53:00,74.0,71.0,-100.00,SW,235,6.0,10.0,90,-99.99,,,-99.99,,2013-07-19 13:53:00,
2013-07-19 09:02:00,74.0,71.0,-100.00,SW,235,6.0,10.0,90,-99.99,,,-99.99,,2013-07-19 14:02:00,
2013-07-19 09:33:00,80.0,72.0,-100.00,WSW,240,7.0,12.0,77,-99.99,,,-99.99,,2013-07-19 14:33:00,
2013-07-19 09:43:00,80.0,72.0,-100.00,WSW,240,7.0,12.0,77,-99.99,,,-99.99,,2013-07-19 14:43:00,
2013-07-19 09:53:00,80.0,72.0,-100.00,WSW,240,7.0,12.0,77,-99.99,,,-99.99,,2013-07-19 14:53:00,
2013-07-19 10:02:00,80.0,72.0,-100.00,WSW,240,7.0,12.0,77,-99.99,,,-99.99,,2013-07-19 15:02:00,
2013-07-19 10:10:00,83.0,71.0,-100.00,SW,230,9.0,15.0,68,-99.99,,,-99.99,,2013-07-19 15:10:00,
2013-07-19 10:32:00,83.0,71.0,-100.00,SW,230,9.0,15.0,68,-99.99,,,-99.99,,2013-07-19 15:32:00,
2013-07-19 10:43:00,83.0,71.0,-100.00,SW,230,9.0,15.0,68,-99.99,,,-99.99,,2013-07-19 15:43:00,
2013-07-19 10:52:00,83.0,71.0,-100.00,SW,230,9.0,15.0,68,-99.99,,,-99.99,,2013-07-19 15:52:00,
2013-07-19 11:01:00,83.0,71.0,-100.00,SW,230,9.0,15.0,68,-99.99,,,-99.99,,2013-07-19 16:01:00,
2013-07-19 11:32:00,85.0,69.0,-100.00,SW,225,9.0,17.0,58,-99.99,,,-99.99,,2013-07-19 16:32:00,
2013-07-19 11:43:00,85.0,69.0,-100.00,SW,225,9.0,17.0,58,-99.99,,,-99.99,,2013-07-19 16:43:00,
2013-07-19 11:53:00,85.0,69.0,-100.00,SW,225,9.0,17.0,58,-99.99,,,-99.99,,2013-07-19 16:53:00,
2013-07-19 12:02:00,85.0,69.0,-100.00,SW,225,9.0,17.0,58,-99.99,,,-99.99,,2013-07-19 17:02:00,
2013-07-19 12:10:00,87.0,69.0,-100.00,SW,225,7.0,20.0,54,-99.99,,,-99.99,,2013-07-19 17:10:00,
2013-07-19 12:32:00,87.0,69.0,-100.00,SW,225,7.0,20.0,54,-99.99,,,-99.99,,2013-07-19 17:32:00,
2013-07-19 12:43:00,87.0,69.0,-100.00,SW,225,7.0,20.0,54,-99.99,,,-99.99,,2013-07-19 17:43:00,
2013-07-19 12:52:00,87.0,69.0,-100.00,SW,225,7.0,20.0,54,-99.99,,,-99.99,,2013-07-19 17:52:00,
2013-07-19 13:01:00,87.0,69.0,-100.00,SW,225,7.0,20.0,54,-99.99,,,-99.99,,2013-07-19 18:01:00,
2013-07-19 13:32:00,88.0,61.0,-100.00,West,265,14.0,22.0,41,-99.99,,,-99.99,,2013-07-19 18:32:00,
2013-07-19 13:43:00,88.0,61.0,-100.00,West,265,14.0,22.0,41,-99.99,,,-99.99,,2013-07-19 18:43:00,
2013-07-19 13:52:00,88.0,61.0,-100.00,West,265,14.0,22.0,41,-99.99,,,-99.99,,2013-07-19 18:52:00,
2013-07-19 14:01:00,88.0,61.0,-100.00,West,265,14.0,22.0,41,-99.99,,,-99.99,,2013-07-19 19:01:00,
2013-07-19 14:10:00,88.0,59.0,-100.00,West,275,7.0,22.0,37,-99.99,,,-99.99,,2013-07-19 19:10:00,
2013-07-19 14:32:00,88.0,59.0,-100.00,West,275,7.0,22.0,37,-99.99,,,-99.99,,2013-07-19 19:32:00,
2013-07-19 14:43:00,88.0,59.0,-100.00,West,275,7.0,22.0,37,-99.99,,,-99.99,,2013-07-19 19:43:00,
2013-07-19 14:52:00,88.0,59.0,-100.00,West,275,7.0,22.0,37,-99.99,,,-99.99,,2013-07-19 19:52:00,
2013-07-19 15:01:00,88.0,59.0,-100.00,West,275,7.0,22.0,37,-99.99,,,-99.99,,2013-07-19 20:01:00,
2013-07-19 15:10:00,87.0,58.0,-100.00,West,280,9.0,21.0,37,-99.99,,,-99.99,,2013-07-19 20:10:00,
2013-07-19 15:33:00,87.0,58.0,-100.00,West,280,9.0,21.0,37,-99.99,,,-99.99,,2013-07-19 20:33:00,
2013-07-19 15:43:00,87.0,58.0,-100.00,West,280,9.0,21.0,37,-99.99,,,-99.99,,2013-07-19 20:43:00,
2013-07-19 15:52:00,87.0,58.0,-100.00,West,280,9.0,21.0,37,-99.99,,,-99.99,,2013-07-19 20:52:00,
2013-07-19 16:01:00,87.0,58.0,-100.00,West,280,9.0,21.0,37,-99.99,,,-99.99,,2013-07-19 21:01:00,
2013-07-19 16:32:00,85.0,61.0,-100.00,WNW,290,6.0,17.0,44,-99.99,,,-99.99,,2013-07-19 21:32:00,
2013-07-19 16:43:00,85.0,61.0,-100.00,WNW,290,6.0,17.0,44,-99.99,,,-99.99,,2013-07-19 21:43:00,
2013-07-19 16:52:00,85.0,61.0,-100.00,WNW,290,6.0,17.0,44,-99.99,,,-99.99,,2013-07-19 21:52:00,
2013-07-19 17:01:00,85.0,61.0,-100.00,WNW,290,6.0,17.0,44,-99.99,,,-99.99,,2013-07-19 22:01:00,
2013-07-19 17:10:00,84.0,59.0,-100.00,West,260,7.0,22.0,42,-99.99,,,-99.99,,2013-07-19 22:10:00,
2013-07-19 17:32:00,84.0,59.0,-100.00,West,260,7.0,22.0,42,-99.99,,,-99.99,,2013-07-19 22:32:00,
2013-07-19 17:43:00,84.0,59.0,-100.00,West,260,7.0,22.0,42,-99.99,,,-99.99,,2013-07-19 22:43:00,
2013-07-19 17:52:00,84.0,59.0,-100.00,West,260,7.0,22.0,42,-99.99,,,-99.99,,2013-07-19 22:52:00,
2013-07-19 18:01:00,84.0,59.0,-100.00,West,260,7.0,22.0,42,-99.99,,,-99.99,,2013-07-19 23:01:00,
2013-07-19 18:33:00,83.0,58.0,-100.00,NW,310,5.0,18.0,43,-99.99,,,-99.99,,2013-07-19 23:33:00,
2013-07-19 18:43:00,83.0,58.0,-100.00,NW,310,5.0,18.0,43,-99.99,,,-99.99,,2013-07-19 23:43:00,
2013-07-19 18:52:00,83.0,58.0,-100.00,NW,310,5.0,18.0,43,-99.99,,,-99.99,,2013-07-19 23:52:00,
2013-07-19 19:01:00,83.0,58.0,-100.00,NW,310,5.0,18.0,43,-99.99,,,-99.99,,2013-07-20 00:01:00,
2013-07-19 19:10:00,82.0,56.0,-100.00,NW,305,4.0,10.0,42,-99.99,,,-99.99,,2013-07-20 00:10:00,
2013-07-19 19:32:00,82.0,56.0,-100.00,NW,305,4.0,10.0,42,-99.99,,,-99.99,,2013-07-20 00:32:00,
2013-07-19 19:43:00,82.0,56.0,-100.00,NW,305,4.0,10.0,42,-99.99,,,-99.99,,2013-07-20 00:43:00,
2013-07-19 19:52:00,82.0,56.0,-100.00,NW,305,4.0,10.0,42,-99.99,,,-99.99,,2013-07-20 00:52:00,
2013-07-19 20:01:00,82.0,56.0,-100.00,NW,305,4.0,10.0,42,-99.99,,,-99.99,,2013-07-20 01:01:00,
2013-07-19 20:32:00,78.0,56.0,-100.00,NW,315,3.0,9.0,46,-99.99,,,-99.99,,2013-07-20 01:32:00,
2013-07-19 20:52:00,78.0,56.0,-100.00,NW,315,3.0,9.0,46,-99.99,,,-99.99,,2013-07-20 01:52:00,
2013-07-19 21:02:00,78.0,56.0,-100.00,NW,315,3.0,9.0,46,-99.99,,,-99.99,,2013-07-20 02:02:00,
2013-07-19 21:10:00,74.0,56.0,-100.00,WNW,290,2.0,4.0,54,-99.99,,,-99.99,,2013-07-20 02:10:00,
2013-07-19 21:33:00,74.0,56.0,-100.00,WNW,290,2.0,4.0,54,-99.99,,,-99.99,,2013-07-20 02:33:00,
2013-07-19 21:44:00,74.0,56.0,-100.00,WNW,290,2.0,4.0,54,-99.99,,,-99.99,,2013-07-20 02:44:00,
2013-07-19 21:52:00,74.0,56.0,-100.00,WNW,290,2.0,4.0,54,-99.99,,,-99.99,,2013-07-20 02:52:00,
2013-07-19 22:02:00,74.0,56.0,-100.00,WNW,290,2.0,4.0,54,-99.99,,,-99.99,,2013-07-20 03:02:00,
2013-07-19 22:32:00,67.0,60.0,-100.00,WSW,245,2.0,3.0,77,-99.99,,,-99.99,,2013-07-20 03:32:00,
2013-07-19 22:44:00,67.0,60.0,-100.00,WSW,245,2.0,3.0,77,-99.99,,,-99.99,,2013-07-20 03:44:00,
2013-07-19 22:53:00,67.0,60.0,-100.00,WSW,245,2.0,3.0,77,-99.99,,,-99.99,,2013-07-20 03:53:00,
2013-07-19 23:02:00,67.0,60.0,-100.00,WSW,245,2.0,3.0,77,-99.99,,,-99.99,,2013-07-20 04:02:00,
2013-07-19 23:33:00,67.0,61.0,-100.00,West,280,2.0,4.0,82,-99.99,,,-99.99,,2013-07-20 04:33:00,
2013-07-19 23:44:00,67.0,61.0,-100.00,West,280,2.0,4.0,82,-99.99,,,-99.99,,2013-07-20 04:44:00,
2013-07-19 23:52:00,67.0,61.0,-100.00,West,280,2.0,4.0,82,-99.99,,,-99.99,,2013-07-20 04:52:00,